MET'MAP v2.0
soon released !

Expected late october,
this new version will be
more efficient, smarter,
and hosted on a brand new
server x3 powerfull...
...and still free !


Not compatible ?
Try the mobile version !

LOG IN : | Subscribe | Disclaimer | Who is Orbifly ? |
ICAO code :

TAF - LFBF Toulouse / Francazal - 09 Apr 2020 03:42 UTC
Data Sources :     NOAA   


- Airport Elevation : 535 ft
- No reported NOTAMs.


LFBF - Toulouse / Francazal

Latest METAR recorded : 0000/00/00 L :08 TAF LELL 081400Z 0815/0915 15008KT 9999 FEW030 TX20/0912Z TN08/0906Z BECMG 0818/0820 VRB03KT TEMPO 0820/0902 2000 BR BKN010 BECMG 0910/0912 16008KT
NO TAF


MET'MAP, your aeronautical weather chart ! - Copyright ORBIFLY December 2007

Programming & Development : Alexandra Zaïnal
Co-Developer : Marc-Olivier Méhu
Technical & hardware support : Manuel Goepfert
Concept & Financing : Baudouin d'Aumeries